createdAt,value
2022-08-07T00:00:32.425Z,21.46
2022-08-07T00:01:44.084Z,21.42
2022-08-07T00:02:40.416Z,21.42
2022-08-07T00:03:36.892Z,21.38
2022-08-07T00:04:32.298Z,21.48
2022-08-07T00:05:32.183Z,21.44
2022-08-07T00:06:33.490Z,21.44
2022-08-07T00:07:40.403Z,21.45
2022-08-07T00:08:32.037Z,21.35
2022-08-07T00:09:35.626Z,21.38
2022-08-07T00:10:31.946Z,21.42
2022-08-07T00:11:33.023Z,21.29
2022-08-07T00:12:31.841Z,21.32
2022-08-07T00:13:31.794Z,21.39
2022-08-07T00:14:31.850Z,21.32
2022-08-07T00:15:38.290Z,21.20
2022-08-07T00:16:31.647Z,21.20
2022-08-07T00:17:35.204Z,21.20
2022-08-07T00:18:31.550Z,21.14
2022-08-07T00:20:00.644Z,21.23
2022-08-07T00:20:34.551Z,21.26
2022-08-07T00:21:55.397Z,21.21
2022-08-07T00:22:35.066Z,21.21
2022-08-07T00:23:31.308Z,21.24
2022-08-07T00:24:31.786Z,21.17
2022-08-07T00:25:37.491Z,21.19
2022-08-07T00:26:48.778Z,21.11
2022-08-07T00:27:51.845Z,21.16
2022-08-07T00:28:31.783Z,21.09
2022-08-07T00:29:31.454Z,21.11
2022-08-07T00:30:30.966Z,21.06
2022-08-07T00:31:37.846Z,21.11
2022-08-07T00:32:30.866Z,21.09
2022-08-07T00:33:32.815Z,21.05
2022-08-07T00:34:30.770Z,21.06
2022-08-07T00:35:30.724Z,21.06
2022-08-07T00:36:30.673Z,21.01
2022-08-07T00:37:30.635Z,21.13
2022-08-07T00:38:31.733Z,21.06
2022-08-07T00:39:30.569Z,21.02
2022-08-07T00:40:39.687Z,20.98
2022-08-07T00:41:30.429Z,21.02
2022-08-07T00:42:30.381Z,20.96
2022-08-07T00:44:02.096Z,20.90
2022-08-07T00:44:30.281Z,20.96
2022-08-07T00:45:30.234Z,21.04
2022-08-07T00:46:30.184Z,20.83
2022-08-07T00:48:07.570Z,21.02
2022-08-07T00:48:30.909Z,20.89
2022-08-07T00:50:21.528Z,20.99
2022-08-07T00:50:50.475Z,20.86
2022-08-07T00:51:57.422Z,20.87
2022-08-07T00:52:29.890Z,20.86
2022-08-07T00:53:38.415Z,20.84
2022-08-07T00:54:29.793Z,20.93
2022-08-07T00:56:03.431Z,20.90
2022-08-07T00:56:30.187Z,20.95
2022-08-07T00:57:29.914Z,20.93
2022-08-07T00:58:29.598Z,20.80
2022-08-07T00:59:35.491Z,20.83
2022-08-07T01:00:29.498Z,20.84
2022-08-07T01:01:29.511Z,20.79
2022-08-07T01:02:29.712Z,20.86
2022-08-07T01:03:56.734Z,20.87
2022-08-07T01:04:30.328Z,20.84
2022-08-07T01:05:29.251Z,20.84
2022-08-07T01:06:29.346Z,20.89
2022-08-07T01:07:30.851Z,20.83
2022-08-07T01:08:29.108Z,20.86
2022-08-07T01:09:51.130Z,20.86
2022-08-07T01:10:29.009Z,20.86
2022-08-07T01:12:09.280Z,20.89
2022-08-07T01:12:30.901Z,20.83
2022-08-07T01:13:28.858Z,20.83
2022-08-07T01:14:29.052Z,20.87
2022-08-07T01:15:36.088Z,20.83
2022-08-07T01:16:30.236Z,20.84
2022-08-07T01:17:28.964Z,20.86
2022-08-07T01:18:28.623Z,20.87
2022-08-07T01:19:32.446Z,20.83
2022-08-07T01:20:30.816Z,20.87
2022-08-07T01:21:28.573Z,20.83
2022-08-07T01:22:29.350Z,20.80
2022-08-07T01:23:38.412Z,20.72
2022-08-07T01:24:28.322Z,20.86
2022-08-07T01:25:40.615Z,20.77
2022-08-07T01:26:28.221Z,20.86
2022-08-07T01:27:32.416Z,20.84
2022-08-07T01:28:28.142Z,20.81
2022-08-07T01:29:31.407Z,20.87
2022-08-07T01:30:28.137Z,20.83
2022-08-07T01:31:29.965Z,20.83
2022-08-07T01:32:27.926Z,20.81
2022-08-07T01:33:30.117Z,20.77
2022-08-07T01:34:30.953Z,20.86
2022-08-07T01:35:53.198Z,20.84
2022-08-07T01:36:33.355Z,20.83
2022-08-07T01:37:27.920Z,20.83
2022-08-07T01:38:29.145Z,20.84
2022-08-07T01:39:40.402Z,20.81
2022-08-07T01:40:27.531Z,20.83
2022-08-07T01:41:27.481Z,20.83
2022-08-07T01:42:38.985Z,20.86
2022-08-07T01:43:27.385Z,20.72
2022-08-07T01:44:27.334Z,20.84
2022-08-07T01:45:37.157Z,20.84
2022-08-07T01:46:27.260Z,20.86
2022-08-07T01:48:19.605Z,20.89
2022-08-07T01:48:29.784Z,20.81
2022-08-07T01:49:27.087Z,20.77
2022-08-07T01:50:28.969Z,20.84
2022-08-07T01:52:01.071Z,20.81
2022-08-07T01:52:26.940Z,20.74
2022-08-07T01:54:09.684Z,20.83
2022-08-07T01:54:32.786Z,20.81
2022-08-07T01:55:26.791Z,20.83
2022-08-07T01:56:28.818Z,20.84
2022-08-07T01:57:26.691Z,20.83
2022-08-07T01:58:27.498Z,20.84
2022-08-07T01:59:31.168Z,20.84
2022-08-07T02:00:28.624Z,20.86
2022-08-07T02:01:59.897Z,20.86
2022-08-07T02:03:05.699Z,20.77
2022-08-07T02:03:42.885Z,20.86
2022-08-07T02:04:26.635Z,20.79
2022-08-07T02:05:47.918Z,20.91
2022-08-07T02:06:31.441Z,20.80
2022-08-07T02:07:36.114Z,20.83
2022-08-07T02:08:26.153Z,20.83
2022-08-07T02:09:52.063Z,20.83
2022-08-07T02:10:26.055Z,20.81
2022-08-07T02:11:30.854Z,20.89
2022-08-07T02:12:31.004Z,20.84
2022-08-07T02:13:56.480Z,20.80
2022-08-07T02:14:35.626Z,20.79
2022-08-07T02:15:28.058Z,20.80
2022-08-07T02:16:28.676Z,20.76
2022-08-07T02:17:31.483Z,20.81
2022-08-07T02:18:26.005Z,20.83
2022-08-07T02:20:07.137Z,20.86
2022-08-07T02:20:25.568Z,20.90
2022-08-07T02:21:25.518Z,20.89
2022-08-07T02:22:25.807Z,20.84
2022-08-07T02:23:25.410Z,20.80
2022-08-07T02:24:25.361Z,20.81
2022-08-07T02:26:10.963Z,20.95
2022-08-07T02:26:33.071Z,20.86
2022-08-07T02:27:25.271Z,20.89
2022-08-07T02:28:25.814Z,20.81
2022-08-07T02:29:25.117Z,20.81
2022-08-07T02:30:25.066Z,20.80
2022-08-07T02:31:29.198Z,20.80
2022-08-07T02:32:26.924Z,20.83
2022-08-07T02:33:24.916Z,20.79
2022-08-07T02:34:24.867Z,20.93
2022-08-07T02:36:28.988Z,20.87
2022-08-07T02:36:30.362Z,20.91
2022-08-07T02:37:24.718Z,20.84
2022-08-07T02:38:28.133Z,20.91
2022-08-07T02:39:43.755Z,20.80
2022-08-07T02:40:30.046Z,20.86
2022-08-07T02:41:24.557Z,20.90
2022-08-07T02:42:24.472Z,20.86
2022-08-07T02:43:24.423Z,20.80
2022-08-07T02:44:27.505Z,20.96
2022-08-07T02:45:58.838Z,20.87
2022-08-07T02:46:24.274Z,20.84
2022-08-07T02:47:24.224Z,20.90
2022-08-07T02:48:24.176Z,20.91
2022-08-07T02:49:56.227Z,20.86
2022-08-07T02:50:24.077Z,20.87
2022-08-07T02:51:41.971Z,20.91
2022-08-07T02:52:32.018Z,20.84
2022-08-07T02:53:23.926Z,20.91
2022-08-07T02:54:25.158Z,20.80
2022-08-07T02:55:28.405Z,20.77
2022-08-07T02:56:23.779Z,20.93
2022-08-07T02:57:23.731Z,20.77
2022-08-07T02:58:23.681Z,20.80
2022-08-07T02:59:23.981Z,20.91
2022-08-07T03:00:23.583Z,20.81
2022-08-07T03:01:35.823Z,20.84
2022-08-07T03:02:23.484Z,20.80
2022-08-07T03:03:23.512Z,20.77
2022-08-07T03:04:23.385Z,20.87
2022-08-07T03:05:23.338Z,20.84
2022-08-07T03:06:32.075Z,20.89
2022-08-07T03:07:58.920Z,20.83
2022-08-07T03:08:26.946Z,20.87
2022-08-07T03:09:43.628Z,20.74
2022-08-07T03:10:23.506Z,20.74
2022-08-07T03:11:25.304Z,20.84
2022-08-07T03:12:30.729Z,20.84
2022-08-07T03:13:22.939Z,20.83
2022-08-07T03:14:22.890Z,20.87
2022-08-07T03:15:30.246Z,20.81
2022-08-07T03:16:22.988Z,20.81
2022-08-07T03:17:22.743Z,20.79
2022-08-07T03:18:24.474Z,20.84
2022-08-07T03:19:22.644Z,20.81
2022-08-07T03:20:22.593Z,20.77
2022-08-07T03:21:22.626Z,20.83
2022-08-07T03:22:22.496Z,20.83
2022-08-07T03:23:22.445Z,20.72
2022-08-07T03:24:26.842Z,20.72
2022-08-07T03:25:22.345Z,20.72
2022-08-07T03:26:23.656Z,20.74
2022-08-07T03:27:30.775Z,20.68
2022-08-07T03:28:37.582Z,20.71
2022-08-07T03:29:22.149Z,20.71
2022-08-07T03:30:24.324Z,20.71
2022-08-07T03:31:24.485Z,20.71
2022-08-07T03:32:21.998Z,20.77
2022-08-07T03:33:21.949Z,20.80
2022-08-07T03:34:22.601Z,20.69
2022-08-07T03:35:26.059Z,20.66
2022-08-07T03:36:21.802Z,20.68
2022-08-07T03:37:21.752Z,20.69
2022-08-07T03:38:29.647Z,20.65
2022-08-07T03:39:45.790Z,20.65
2022-08-07T03:40:22.127Z,20.61
2022-08-07T03:41:41.971Z,20.59
2022-08-07T03:42:21.505Z,20.65
2022-08-07T03:43:21.457Z,20.56
2022-08-07T03:44:31.906Z,20.58
2022-08-07T03:45:30.737Z,20.59
2022-08-07T03:46:21.308Z,20.61
2022-08-07T03:47:21.262Z,20.56
2022-08-07T03:48:21.215Z,20.50
2022-08-07T03:49:21.159Z,20.53
2022-08-07T03:50:22.891Z,20.49
2022-08-07T03:51:21.065Z,20.51
2022-08-07T03:52:22.727Z,20.47
2022-08-07T03:53:20.959Z,20.54
2022-08-07T03:54:35.377Z,20.49
2022-08-07T03:55:20.861Z,20.50
2022-08-07T03:56:32.712Z,20.50
2022-08-07T03:58:33.841Z,20.42
2022-08-07T03:58:34.731Z,20.41
2022-08-07T03:59:21.014Z,20.41
2022-08-07T04:00:21.003Z,20.38
2022-08-07T04:01:22.432Z,20.41
2022-08-07T04:02:20.516Z,20.35
2022-08-07T04:03:20.467Z,20.30
2022-08-07T04:04:20.413Z,20.42
2022-08-07T04:05:20.364Z,20.34
2022-08-07T04:06:37.552Z,20.41
2022-08-07T04:07:22.862Z,20.33
2022-08-07T04:08:20.928Z,20.39
2022-08-07T04:09:22.940Z,20.38
2022-08-07T04:10:20.122Z,20.35
2022-08-07T04:12:24.613Z,20.30
2022-08-07T04:12:25.108Z,20.31
2022-08-07T04:13:19.966Z,20.30
2022-08-07T04:14:37.631Z,20.31
2022-08-07T04:15:19.867Z,20.21
2022-08-07T04:16:30.975Z,20.24
2022-08-07T04:17:21.562Z,20.24
2022-08-07T04:18:57.549Z,20.25
2022-08-07T04:19:19.875Z,20.23
2022-08-07T04:20:19.623Z,20.24
2022-08-07T04:21:19.570Z,20.21
2022-08-07T04:22:19.522Z,20.24
2022-08-07T04:23:19.660Z,20.16
2022-08-07T04:24:30.683Z,20.20
2022-08-07T04:25:19.372Z,20.24
2022-08-07T04:26:21.690Z,20.20
2022-08-07T04:27:20.404Z,20.16
2022-08-07T04:28:21.831Z,20.09
2022-08-07T04:29:19.170Z,20.16
2022-08-07T04:30:21.284Z,20.10
2022-08-07T04:31:19.781Z,20.13
2022-08-07T04:32:19.024Z,20.12
2022-08-07T04:33:18.972Z,20.12
2022-08-07T04:34:24.301Z,20.08
2022-08-07T04:35:18.874Z,20.10
2022-08-07T04:36:18.826Z,20.10
2022-08-07T04:37:20.563Z,20.06
2022-08-07T04:38:18.725Z,20.08
2022-08-07T04:39:25.447Z,20.06
2022-08-07T04:40:19.624Z,20.00
2022-08-07T04:41:19.279Z,20.10
2022-08-07T04:42:18.525Z,20.10
2022-08-07T04:43:18.475Z,20.10
2022-08-07T04:44:19.044Z,20.03
2022-08-07T04:45:22.736Z,20.18
2022-08-07T04:46:20.145Z,20.10
2022-08-07T04:47:57.280Z,20.05
2022-08-07T04:48:18.229Z,20.06
2022-08-07T04:49:24.627Z,20.06
2022-08-07T04:50:18.127Z,20.00
2022-08-07T04:51:18.412Z,20.03
2022-08-07T04:52:18.470Z,20.13
2022-08-07T04:53:39.980Z,20.03
2022-08-07T04:54:17.926Z,20.00
2022-08-07T04:58:11.626Z,20.13
2022-08-07T04:58:14.763Z,20.09
2022-08-07T04:58:15.997Z,20.03
2022-08-07T04:58:38.840Z,20.13
2022-08-07T05:00:11.430Z,20.12
2022-08-07T05:00:30.487Z,20.05
2022-08-07T05:01:18.374Z,20.10
2022-08-07T05:02:20.605Z,20.09
2022-08-07T05:04:00.352Z,20.15
2022-08-07T05:04:18.139Z,20.12
2022-08-07T05:05:53.569Z,20.13
2022-08-07T05:06:20.183Z,20.13
2022-08-07T05:07:20.711Z,20.06
2022-08-07T05:08:17.231Z,20.06
2022-08-07T05:09:17.179Z,20.06
2022-08-07T05:10:17.128Z,20.12
2022-08-07T05:11:19.445Z,20.13
2022-08-07T05:12:26.786Z,20.15
2022-08-07T05:14:52.257Z,20.12
2022-08-07T05:14:55.525Z,20.15
2022-08-07T05:15:21.685Z,20.13
2022-08-07T05:16:16.828Z,20.16
2022-08-07T05:17:17.504Z,20.20
2022-08-07T05:18:16.728Z,20.23
2022-08-07T05:19:16.680Z,20.18
2022-08-07T05:20:16.632Z,20.08
2022-08-07T05:21:25.264Z,20.15
2022-08-07T05:22:27.713Z,20.21
2022-08-07T05:23:16.508Z,20.24
2022-08-07T05:24:16.428Z,20.23
2022-08-07T05:25:25.669Z,20.09
2022-08-07T05:26:24.273Z,20.24
2022-08-07T05:28:03.523Z,20.24
2022-08-07T05:28:22.628Z,20.28
2022-08-07T05:29:16.183Z,20.25
2022-08-07T05:30:16.129Z,20.24
2022-08-07T05:31:16.756Z,20.28
2022-08-07T05:32:16.032Z,20.27
2022-08-07T05:33:15.980Z,20.28
2022-08-07T05:34:15.948Z,20.27
2022-08-07T05:35:15.881Z,20.24
2022-08-07T05:36:22.691Z,20.21
2022-08-07T05:37:15.781Z,20.31
2022-08-07T05:39:01.206Z,20.23
2022-08-07T05:40:06.571Z,20.30
2022-08-07T05:40:19.055Z,20.35
2022-08-07T05:41:16.681Z,20.33
2022-08-07T05:42:15.616Z,20.38
2022-08-07T05:43:15.482Z,20.34
2022-08-07T05:44:15.431Z,20.31
2022-08-07T05:45:28.278Z,20.43
2022-08-07T05:46:15.332Z,20.34
2022-08-07T05:47:17.987Z,20.35
2022-08-07T05:48:15.244Z,20.25
2022-08-07T05:49:15.182Z,20.31
2022-08-07T05:50:15.132Z,20.42
2022-08-07T05:51:15.083Z,20.38
2022-08-07T05:52:15.033Z,20.39
2022-08-07T05:54:13.264Z,20.39
2022-08-07T05:54:44.278Z,20.43
2022-08-07T05:55:14.921Z,20.50
2022-08-07T05:56:14.834Z,20.43
2022-08-07T05:57:14.783Z,20.49
2022-08-07T05:58:14.733Z,20.51
2022-08-07T05:59:14.684Z,20.56
2022-08-07T06:00:16.112Z,20.46
2022-08-07T06:01:14.584Z,20.47
2022-08-07T06:02:17.728Z,20.51
2022-08-07T06:03:14.571Z,20.53
2022-08-07T06:04:14.433Z,20.62
2022-08-07T06:05:15.407Z,20.58
2022-08-07T06:06:17.371Z,20.65
2022-08-07T06:07:22.970Z,20.61
2022-08-07T06:08:30.422Z,20.62
2022-08-07T06:09:14.186Z,20.61
2022-08-07T06:10:15.379Z,20.64
2022-08-07T06:11:14.085Z,20.66
2022-08-07T06:12:15.394Z,20.71
2022-08-07T06:13:15.663Z,20.68
2022-08-07T06:14:21.161Z,20.69
2022-08-07T06:15:15.998Z,20.77
2022-08-07T06:16:13.836Z,20.81
2022-08-07T06:17:13.786Z,20.72
2022-08-07T06:18:14.187Z,20.69
2022-08-07T06:19:17.953Z,20.71
2022-08-07T06:20:31.910Z,20.86
2022-08-07T06:22:15.814Z,20.84
2022-08-07T06:22:22.741Z,20.80
2022-08-07T06:23:46.663Z,20.83
2022-08-07T06:24:45.763Z,20.80
2022-08-07T06:25:13.388Z,20.89
2022-08-07T06:26:13.345Z,20.91
2022-08-07T06:27:13.290Z,20.89
2022-08-07T06:28:14.094Z,20.89
2022-08-07T06:29:13.206Z,20.84
2022-08-07T06:30:35.191Z,20.81
2022-08-07T06:31:13.096Z,20.89
2022-08-07T06:32:13.356Z,20.83
2022-08-07T06:33:15.972Z,20.87
2022-08-07T06:34:12.941Z,20.89
2022-08-07T06:35:17.774Z,20.96
2022-08-07T06:36:14.098Z,20.86
2022-08-07T06:37:20.431Z,20.86
2022-08-07T06:38:20.700Z,20.87
2022-08-07T06:40:16.978Z,20.83
2022-08-07T06:40:20.774Z,20.87
2022-08-07T06:41:12.893Z,20.93
2022-08-07T06:42:12.600Z,20.98
2022-08-07T06:43:21.593Z,20.99
2022-08-07T06:44:12.443Z,21.02
2022-08-07T06:45:12.399Z,21.02
2022-08-07T06:46:12.620Z,21.02
2022-08-07T06:47:15.588Z,21.09
2022-08-07T06:48:12.244Z,21.05
2022-08-07T06:49:12.197Z,21.04
2022-08-07T06:50:12.153Z,21.06
2022-08-07T06:51:12.097Z,21.09
2022-08-07T06:52:12.048Z,21.09
2022-08-07T06:53:49.359Z,21.06
2022-08-07T06:55:30.156Z,21.09
2022-08-07T06:55:34.100Z,21.13
2022-08-07T06:56:15.061Z,21.06
2022-08-07T06:57:11.801Z,21.16
2022-08-07T06:58:11.750Z,21.17
2022-08-07T07:00:12.088Z,21.14
2022-08-07T07:00:17.721Z,21.20
2022-08-07T07:01:11.677Z,21.16
2022-08-07T07:02:11.684Z,21.19
2022-08-07T07:03:14.570Z,21.21
2022-08-07T07:04:33.043Z,21.17
2022-08-07T07:05:12.865Z,21.29
2022-08-07T07:06:11.619Z,21.19
2022-08-07T07:07:58.413Z,21.32
2022-08-07T07:08:12.636Z,21.21
2022-08-07T07:09:11.204Z,21.29
2022-08-07T07:10:11.157Z,21.24
2022-08-07T07:11:14.103Z,21.27
2022-08-07T07:12:18.013Z,21.27
2022-08-07T07:13:11.007Z,21.35
2022-08-07T07:14:10.958Z,21.41
2022-08-07T07:15:23.901Z,21.36
2022-08-07T07:16:10.860Z,21.41
2022-08-07T07:17:15.982Z,21.27
2022-08-07T07:18:10.762Z,21.48
2022-08-07T07:19:19.023Z,21.42
2022-08-07T07:20:10.661Z,21.45
2022-08-07T07:21:13.447Z,21.42
2022-08-07T07:22:12.053Z,21.39
2022-08-07T07:24:10.323Z,21.45
2022-08-07T07:24:12.674Z,21.48
2022-08-07T07:26:30.591Z,21.42
2022-08-07T07:26:32.488Z,21.39
2022-08-07T07:27:10.317Z,21.44
2022-08-07T07:28:42.484Z,21.45
2022-08-07T07:29:39.276Z,21.51
2022-08-07T07:30:11.944Z,21.46
2022-08-07T07:31:10.118Z,21.51
2022-08-07T07:32:10.069Z,21.46
2022-08-07T07:33:11.462Z,21.56
2022-08-07T07:34:09.971Z,21.56
2022-08-07T07:35:09.925Z,21.56
2022-08-07T07:36:13.378Z,21.63
2022-08-07T07:37:22.203Z,21.61
2022-08-07T07:38:09.775Z,21.60
2022-08-07T07:39:09.831Z,21.56
2022-08-07T07:40:14.837Z,21.54
2022-08-07T07:41:09.626Z,21.66
2022-08-07T07:42:13.734Z,21.67
2022-08-07T07:43:15.186Z,21.64
2022-08-07T07:44:16.737Z,21.71
2022-08-07T07:45:09.431Z,21.64
2022-08-07T07:46:37.587Z,21.64
2022-08-07T07:47:22.884Z,21.72
2022-08-07T07:48:09.281Z,21.75
2022-08-07T07:50:33.286Z,21.66
2022-08-07T07:50:36.532Z,21.66
2022-08-07T07:51:09.133Z,21.72
2022-08-07T07:52:09.086Z,21.76
2022-08-07T07:53:13.674Z,21.78
2022-08-07T07:54:08.985Z,21.76
2022-08-07T07:55:08.950Z,21.82
2022-08-07T07:56:08.886Z,21.75
2022-08-07T07:57:08.890Z,21.78
2022-08-07T07:58:08.789Z,21.76
2022-08-07T07:59:08.738Z,21.81
2022-08-07T08:00:09.304Z,21.83
2022-08-07T08:02:03.375Z,21.81
2022-08-07T08:02:10.859Z,21.85
2022-08-07T08:03:08.809Z,21.82
2022-08-07T08:04:11.684Z,21.83
2022-08-07T08:05:11.534Z,21.85
2022-08-07T08:06:08.401Z,21.88
2022-08-07T08:07:08.345Z,21.82
2022-08-07T08:08:32.338Z,21.92
2022-08-07T08:09:08.254Z,21.90
2022-08-07T08:10:08.198Z,21.90
2022-08-07T08:11:09.337Z,21.90
2022-08-07T08:12:08.098Z,21.85
2022-08-07T08:13:10.550Z,21.94
2022-08-07T08:14:08.014Z,21.95
2022-08-07T08:15:07.952Z,21.95
2022-08-07T08:16:07.907Z,21.95
2022-08-07T08:17:55.362Z,21.97
2022-08-07T08:18:17.811Z,21.95
2022-08-07T08:19:09.939Z,21.92
2022-08-07T08:20:17.030Z,21.98
2022-08-07T08:21:07.702Z,22.06
2022-08-07T08:22:07.813Z,22.09
2022-08-07T08:23:08.489Z,22.09
2022-08-07T08:24:07.513Z,22.09
2022-08-07T08:25:24.835Z,22.13
2022-08-07T08:26:07.413Z,22.06
2022-08-07T08:27:09.507Z,22.06
2022-08-07T08:28:07.314Z,22.12
2022-08-07T08:29:08.285Z,22.06
2022-08-07T08:30:07.217Z,22.13
2022-08-07T08:31:07.165Z,22.06
2022-08-07T08:32:18.641Z,22.07
2022-08-07T08:33:15.313Z,22.09
2022-08-07T08:34:07.019Z,22.10
2022-08-07T08:35:06.983Z,22.17
2022-08-07T08:36:06.923Z,22.16
2022-08-07T08:37:09.922Z,22.09
2022-08-07T08:38:06.976Z,22.20
2022-08-07T08:39:06.846Z,22.23
2022-08-07T08:40:06.785Z,22.17
2022-08-07T08:41:06.674Z,22.19
2022-08-07T08:42:06.646Z,22.27
2022-08-07T08:43:06.579Z,22.23
2022-08-07T08:44:06.553Z,22.19
2022-08-07T08:45:06.605Z,22.20
2022-08-07T08:46:06.461Z,22.22
2022-08-07T08:47:06.381Z,22.19
2022-08-07T08:48:06.333Z,22.31
2022-08-07T08:49:06.284Z,22.19
2022-08-07T08:50:06.257Z,22.23
2022-08-07T08:51:14.651Z,22.25
2022-08-07T08:52:12.738Z,22.27
2022-08-07T08:53:06.088Z,22.29
2022-08-07T08:54:06.084Z,22.27
2022-08-07T08:55:07.706Z,22.29
2022-08-07T08:56:05.944Z,22.25
2022-08-07T08:57:05.932Z,22.20
2022-08-07T08:58:05.848Z,22.27
2022-08-07T08:59:06.376Z,22.32
2022-08-07T09:00:05.748Z,22.34
2022-08-07T09:01:15.207Z,22.29
2022-08-07T09:03:48.074Z,22.31
2022-08-07T09:04:47.262Z,22.31
2022-08-07T09:06:38.221Z,22.37
2022-08-07T09:07:46.437Z,22.37
2022-08-07T09:09:33.229Z,22.37
2022-08-07T09:10:29.922Z,22.41
2022-08-07T09:12:31.109Z,22.41
2022-08-07T09:13:35.332Z,22.43
2022-08-07T09:16:23.409Z,22.46
2022-08-07T09:16:24.535Z,22.37
2022-08-07T09:18:11.478Z,22.39
2022-08-07T09:19:07.313Z,22.32
2022-08-07T09:20:34.616Z,22.43
2022-08-07T09:21:05.740Z,22.39
2022-08-07T09:22:22.326Z,22.44
2022-08-07T09:24:31.056Z,22.47
2022-08-07T09:24:32.666Z,22.43
2022-08-07T09:25:11.905Z,22.56
2022-08-07T09:26:05.503Z,22.44
2022-08-07T09:27:09.089Z,22.54
2022-08-07T09:28:05.397Z,22.54
2022-08-07T09:30:06.696Z,22.52
2022-08-07T09:30:08.711Z,22.47
2022-08-07T09:31:05.258Z,22.60
2022-08-07T09:32:05.203Z,22.50
2022-08-07T09:33:16.444Z,22.59
2022-08-07T09:34:05.104Z,22.57
2022-08-07T09:36:02.710Z,22.62
2022-08-07T09:36:07.759Z,22.60
2022-08-07T09:37:04.960Z,22.52
2022-08-07T09:38:04.908Z,22.56
2022-08-07T09:39:11.489Z,22.65
2022-08-07T09:40:04.911Z,22.64
2022-08-07T09:41:04.762Z,22.57
2022-08-07T09:42:07.646Z,22.65
2022-08-07T09:43:04.664Z,22.59
2022-08-07T09:44:06.846Z,22.72
2022-08-07T09:47:23.619Z,22.67
2022-08-07T09:47:24.370Z,22.59
2022-08-07T09:47:50.787Z,22.62
2022-08-07T09:48:11.843Z,22.69
2022-08-07T09:50:02.566Z,22.65
2022-08-07T09:50:18.687Z,22.67
2022-08-07T09:51:04.425Z,22.69
2022-08-07T09:52:16.094Z,22.71
2022-08-07T09:53:04.177Z,22.69
2022-08-07T09:54:04.136Z,22.71
2022-08-07T09:55:04.079Z,22.62
2022-08-07T09:56:05.285Z,22.72
2022-08-07T09:57:03.982Z,22.64
2022-08-07T09:58:03.935Z,22.62
2022-08-07T09:59:07.617Z,22.72
2022-08-07T10:00:03.837Z,22.67
2022-08-07T10:01:03.786Z,22.74
2022-08-07T10:02:03.740Z,22.74
2022-08-07T10:03:07.772Z,22.75
2022-08-07T10:04:14.274Z,22.68
2022-08-07T10:05:12.692Z,22.82
2022-08-07T10:06:10.557Z,22.67
2022-08-07T10:07:03.495Z,22.72
2022-08-07T10:08:03.450Z,22.69
2022-08-07T10:09:03.407Z,22.74
2022-08-07T10:10:03.456Z,22.75
2022-08-07T10:11:17.297Z,22.69
2022-08-07T10:12:15.148Z,22.74
2022-08-07T10:13:03.686Z,22.75
2022-08-07T10:14:03.155Z,22.75
2022-08-07T10:15:03.167Z,22.80
2022-08-07T10:16:03.059Z,22.83
2022-08-07T10:17:03.033Z,22.86
2022-08-07T10:18:03.807Z,22.75
2022-08-07T10:19:02.913Z,22.80
2022-08-07T10:20:02.864Z,22.83
2022-08-07T10:21:02.832Z,22.86
2022-08-07T10:22:16.333Z,22.89
2022-08-07T10:23:02.717Z,22.87
2022-08-07T10:24:05.724Z,22.84
2022-08-07T10:25:02.689Z,22.83
2022-08-07T10:26:02.573Z,22.86
2022-08-07T10:27:02.524Z,22.86
2022-08-07T10:28:02.633Z,22.90
2022-08-07T10:29:02.428Z,22.86
2022-08-07T10:30:02.378Z,22.90
2022-08-07T10:31:02.329Z,22.89
2022-08-07T10:32:02.282Z,22.94
2022-08-07T10:33:02.233Z,22.93
2022-08-07T10:34:14.026Z,22.90
2022-08-07T10:35:02.137Z,22.94
2022-08-07T10:36:05.531Z,22.92
2022-08-07T10:37:03.980Z,22.96
2022-08-07T10:38:21.838Z,22.94
2022-08-07T10:39:01.984Z,22.97
2022-08-07T10:40:06.192Z,22.96
2022-08-07T10:41:01.845Z,22.96
2022-08-07T10:42:09.753Z,22.92
2022-08-07T10:43:01.748Z,23.01
2022-08-07T10:44:07.396Z,23.01
2022-08-07T10:45:01.691Z,23.04
2022-08-07T10:46:01.604Z,23.04
2022-08-07T10:47:01.564Z,23.05
2022-08-07T10:48:03.772Z,23.05
2022-08-07T10:49:01.461Z,23.04
2022-08-07T10:50:01.413Z,23.07
2022-08-07T10:51:01.359Z,23.04
2022-08-07T10:52:12.923Z,23.02
2022-08-07T10:53:07.973Z,23.01
2022-08-07T10:54:01.217Z,23.09
2022-08-07T10:55:07.932Z,23.01
2022-08-07T10:56:02.383Z,23.05
2022-08-07T10:57:01.073Z,23.02
2022-08-07T10:58:01.021Z,23.07
2022-08-07T10:59:00.972Z,23.14
2022-08-07T11:00:00.925Z,23.15
2022-08-07T11:01:00.920Z,23.15
2022-08-07T11:02:04.775Z,23.11
2022-08-07T11:03:00.913Z,23.07
2022-08-07T11:04:16.550Z,23.11
2022-08-07T11:05:04.209Z,23.14
2022-08-07T11:06:00.636Z,23.20
2022-08-07T11:07:00.584Z,23.15
2022-08-07T11:08:03.442Z,23.23
2022-08-07T11:09:00.487Z,23.14
2022-08-07T11:10:09.923Z,23.26
2022-08-07T11:11:00.399Z,23.12
2022-08-07T11:12:00.350Z,23.07
2022-08-07T11:13:01.951Z,23.19
2022-08-07T11:14:44.810Z,23.19
2022-08-07T11:15:01.066Z,23.24
2022-08-07T11:16:00.151Z,23.27
2022-08-07T11:17:02.223Z,23.27
2022-08-07T11:18:03.738Z,23.29
2022-08-07T11:19:00.004Z,23.27
2022-08-07T11:19:59.994Z,23.27
2022-08-07T11:20:59.908Z,23.29
2022-08-07T11:22:00.221Z,23.24
2022-08-07T11:22:59.816Z,23.32
2022-08-07T11:24:00.355Z,23.35
2022-08-07T11:24:59.714Z,23.27
2022-08-07T11:26:06.501Z,23.29
2022-08-07T11:27:01.208Z,23.26
2022-08-07T11:28:02.870Z,23.38
2022-08-07T11:28:59.522Z,23.31
2022-08-07T11:30:18.005Z,23.31
2022-08-07T11:30:59.426Z,23.32
2022-08-07T11:31:59.377Z,23.32
2022-08-07T11:32:59.326Z,23.31
2022-08-07T11:34:00.815Z,23.34
2022-08-07T11:34:59.229Z,23.35
2022-08-07T11:36:01.394Z,23.45
2022-08-07T11:37:00.256Z,23.42
2022-08-07T11:38:12.855Z,23.42
2022-08-07T11:38:59.115Z,23.43
2022-08-07T11:40:03.467Z,23.42
2022-08-07T11:40:58.941Z,23.43
2022-08-07T11:42:00.287Z,23.47
2022-08-07T11:42:59.087Z,23.53
2022-08-07T11:44:12.830Z,23.57
2022-08-07T11:44:58.747Z,23.50
2022-08-07T11:45:58.709Z,23.47
2022-08-07T11:46:58.651Z,23.52
2022-08-07T11:47:59.405Z,23.53
2022-08-07T11:49:50.512Z,23.52
2022-08-07T11:50:30.345Z,23.57
2022-08-07T11:50:58.487Z,23.57
2022-08-07T11:51:58.415Z,23.60
2022-08-07T11:52:58.362Z,23.53
2022-08-07T11:54:00.559Z,23.57
2022-08-07T11:54:58.265Z,23.64
2022-08-07T11:56:24.842Z,23.58
2022-08-07T11:56:58.170Z,23.62
2022-08-07T11:58:01.251Z,23.64
2022-08-07T11:58:58.814Z,23.58
2022-08-07T12:00:11.877Z,23.61
2022-08-07T12:01:02.663Z,23.62
2022-08-07T12:02:00.744Z,23.61
2022-08-07T12:02:57.914Z,23.65
2022-08-07T12:03:57.875Z,23.64
2022-08-07T12:04:57.795Z,23.75
2022-08-07T12:05:58.429Z,23.61
2022-08-07T12:07:03.938Z,23.70
2022-08-07T12:08:04.132Z,23.64
2022-08-07T12:08:57.593Z,23.70
2022-08-07T12:09:57.545Z,23.71
2022-08-07T12:11:08.172Z,23.75
2022-08-07T12:12:10.647Z,23.71
2022-08-07T12:12:57.401Z,23.71
2022-08-07T12:13:57.351Z,23.64
2022-08-07T12:15:01.214Z,23.77
2022-08-07T12:16:06.820Z,23.64
2022-08-07T12:16:57.207Z,23.77
2022-08-07T12:17:59.661Z,23.72
2022-08-07T12:18:57.110Z,23.77
2022-08-07T12:20:02.621Z,23.75
2022-08-07T12:20:57.018Z,23.79
2022-08-07T12:22:37.079Z,23.79
2022-08-07T12:22:58.866Z,23.71
2022-08-07T12:24:07.557Z,23.75
2022-08-07T12:25:02.256Z,23.82
2022-08-07T12:26:03.390Z,23.72
2022-08-07T12:26:56.728Z,23.76
2022-08-07T12:28:08.944Z,23.83
2022-08-07T12:28:56.636Z,23.79
2022-08-07T12:29:56.582Z,23.90
2022-08-07T12:30:56.535Z,23.83
2022-08-07T12:32:03.824Z,23.86
2022-08-07T12:32:56.440Z,23.87
2022-08-07T12:34:01.772Z,23.90
2022-08-07T12:34:56.582Z,23.83
2022-08-07T12:35:58.174Z,23.86
2022-08-07T12:36:56.253Z,23.83
2022-08-07T12:38:09.038Z,23.90
2022-08-07T12:38:57.581Z,23.90
2022-08-07T12:39:57.336Z,23.94
2022-08-07T12:40:56.076Z,23.90
2022-08-07T12:41:56.007Z,23.87
2022-08-07T12:42:57.243Z,23.94
2022-08-07T12:44:04.205Z,23.92
2022-08-07T12:44:55.864Z,23.92
2022-08-07T12:46:02.474Z,23.92
2022-08-07T12:46:55.768Z,23.92
2022-08-07T12:47:55.718Z,23.95
2022-08-07T12:48:55.673Z,24.00
2022-08-07T12:50:39.451Z,23.98
2022-08-07T12:50:55.577Z,24.00
2022-08-07T12:52:14.283Z,23.97
2022-08-07T12:52:55.480Z,23.95
2022-08-07T12:54:02.622Z,24.02
2022-08-07T12:54:57.314Z,23.95
2022-08-07T12:56:02.038Z,24.04
2022-08-07T12:56:55.356Z,24.05
2022-08-07T12:58:02.370Z,24.01